Portada
METAR-TAF:

METAR-TAF

Aeroports :

Xarm al xeic, Egipte

latitud: 27-58N, longitud: 034-23E, altitud: 50 m

Observació

L'informe es va fer fa 57 minuts, a les 03:00 UTC
Vent 10 kt del Nord/Nord-Oest
Temperatura 33°C
Humitat 24%
Pressió 1005 hPa
Visibilitat 10 km o més
sense núvols per sota de 1500 mi sense presència de cumulonimbus.

METAR: HESH 240300Z 34010KT CAVOK 33/10 Q1005 NOSIG

Hora: 05:57 (03:57 UTC)

Pronòstic

L'informe es va fer fa 4 hores i 57 minuts, a les 23:00 UTC
Pronòstic vàlid del 24 a les 00 UTC al 25 a les 06 UTC
Vent 10 kt del Nord-Oest
Visibilitat 10 km o més
sense núvols per sota de 1500 mi sense presència de cumulonimbus.

TAF: HESH 232300Z 2400/2506 32010KT CAVOK

Observacions i pronòstics meteorològics de més de 4000 aeroports (METAR i TAF).

Les estacions disponibles són els punts grocs i vermells al mapa.

Posi el ratolí al punt desitjat per veure el nom de l'estació.

Feu clic per veure les observacions i els pronòstics meteorològics.

Per canviar el mapa: feu clic els botons verds amb una creu de color negre per apropar; al botó verd amb un guió per allunyar la imatge; o en les fletxes verdes per a mapes adjacents.


METAR-TAF: